Hauptseite
METAR-TAF:

METAR-TAF

Flughäfen :

Shanghai-Pudong, China

Shanghai Pudong International Airport

Breite: 31-07N, Länge: 121-46E, Höhe: 4 m

Beobachtung

Neuester Wetterbericht von vor 12 Minuten, um 04:00 UTC
Wind 16 kt aus Nord
Temperatur 19°C
Luftfeuchtigkeit 78%
Luftdruck 1017 hPa
Sichtweite 10 km oder mehr
Aufgelockert bewölkt in der Höhe von 1600 ft

METAR: ZSPD 260400Z 36008MPS 9999 SCT016 19/15 Q1017 NOSIG

Zeit: 12:12 (04:12 UTC)

Prognose

Neuester Wetterbericht von vor 6 Stunden und 55 Minuten, um 21:17 UTC
Gültige Prognose vom 26 um 00 UTC bis 26 um 24 UTC
Wind 14 kt aus Nord/Nordost
Sichtweite: 6000 m
Durchbrochene Bewölkung in der Höhe von 1100 ft

TAF: ZSPD 252117Z 2600/2624 03007MPS 6000 BKN011 TX20/2606Z TN14/2621Z

Wetterbeobachtungen und Prognosen von mehr als 4000 Flughäfen (METAR und TAF Bericht).

Die verfügbaren Stationen werden durch gelbe und rote Markierungen auf der Karte dargestellt.

Führen Sie die Maus auf sie, um den Namen der Station zu sehen.

Darauf klicken, um die Beobachtung von Wetterbeobachtungen und Prognosen zu sehen.

Um die Karte zu ändern : klicken Sie auf den grünen Tasten mit einem schwarzen Kreuz Zum Vergrößern, auf den grünen Button mit einem Gedankenstrich zu verkleinern, oder auf die grünen Pfeile für benachbarte Karten.


METAR-TAF: